Travis Air Force Base
KSUU : now visible

Airfield :











YOU CAN JOIN US ON...

 
LOGIN :

Register | Disclaimer

   EN    FR    IT 

 









Legend :    VFR   Marginal VFR   IFR   Intensive IFR   Very Intensive IFR
Visi :
Ceiling :
>= 8 km
>= 3000ft
5 to 8 km
1000 to 3000 ft
1500m to 5 km
500 to 1000 ft
800 to 1500m
200 to 500 ft
< 800m
< 200 ft
Symbols :   Thunderstorms  Fog  Heavy snow  Heavy precipitations  Wind > 20 kt







- Airport Elevation : 62 ft


KSUU - Travis Air Force Base

CURRENT METAR :
  • 190958Z AUTO 23020KT 10SM CLR 14/12 A2988 RMK AO2 PK WND 23029/26 SLP125 T01430120 $

EXPIRED METARs :
  • 190858Z AUTO 23020G25KT 10SM CLR 15/12 A2988 RMK AO2 PK WND 23028/26 SLP125 T01460121 53001 $
  • 190758Z AUTO 23021G26KT 10SM CLR 15/12 A2988 RMK AO2 PK WND 24026/0658 SLP125 T01490122 402870146 $

TAF TAF KSUU
Valid from the 19 at 03:00 until the 20 at 09:00 UTC


190300Z 1903/2009 23015G25KT 9999 SKC QNH2981INS
BECMG 1916/1917 23012G20KT 9999 SKC QNH2990INS TX27/1923Z TN13/1912Z
No reported NOTAMs for that airfield.



MET'MAP, your aeronautical weather chart ! - Copyright ORBIFLY December 2007 - Disclaimer

ORBIFLY MET'MAP TEAM :

Programming & Development : Alexandra Zaïnal
Concept & Development : Baudouin d'Aumeries
Co-Development & Prog : Marc-Olivier Méhu
Technical & hardware support : Manuel Goepfert

Contact : metmap@orbifly.com




SOURCES & CREDITS :

   NOAA       Earth
Advisory